sensor_id;sensor_type;location;lat;lon;timestamp;P1;durP1;ratioP1;P2;durP2;ratioP2
7213;SDS011;3648;50.614;13.830;2023-03-24T00:00:57;14.40;;;11.27;;
7213;SDS011;3648;50.614;13.830;2023-03-24T00:03:25;12.30;;;8.13;;
7213;SDS011;3648;50.614;13.830;2023-03-24T00:05:54;7.83;;;6.00;;
7213;SDS011;3648;50.614;13.830;2023-03-24T00:08:25;7.43;;;5.13;;
7213;SDS011;3648;50.614;13.830;2023-03-24T00:10:57;7.20;;;5.67;;
7213;SDS011;3648;50.614;13.830;2023-03-24T00:13:28;7.13;;;4.27;;
7213;SDS011;3648;50.614;13.830;2023-03-24T00:15:56;6.03;;;3.90;;
7213;SDS011;3648;50.614;13.830;2023-03-24T00:18:23;5.90;;;3.83;;
7213;SDS011;3648;50.614;13.830;2023-03-24T00:20:51;5.03;;;3.80;;
7213;SDS011;3648;50.614;13.830;2023-03-24T00:23:23;9.03;;;4.10;;
7213;SDS011;3648;50.614;13.830;2023-03-24T00:25:59;4.80;;;3.17;;
7213;SDS011;3648;50.614;13.830;2023-03-24T00:28:27;5.20;;;3.03;;
7213;SDS011;3648;50.614;13.830;2023-03-24T00:30:55;5.03;;;3.00;;
7213;SDS011;3648;50.614;13.830;2023-03-24T00:33:23;3.70;;;2.93;;
7213;SDS011;3648;50.614;13.830;2023-03-24T00:35:50;2.90;;;2.60;;
7213;SDS011;3648;50.614;13.830;2023-03-24T00:38:18;5.60;;;3.37;;
7213;SDS011;3648;50.614;13.830;2023-03-24T00:40:45;6.83;;;3.33;;
7213;SDS011;3648;50.614;13.830;2023-03-24T00:43:15;4.70;;;3.30;;
7213;SDS011;3648;50.614;13.830;2023-03-24T00:45:43;5.10;;;2.87;;
7213;SDS011;3648;50.614;13.830;2023-03-24T00:48:11;5.90;;;3.17;;
7213;SDS011;3648;50.614;13.830;2023-03-24T00:50:38;6.00;;;4.43;;
7213;SDS011;3648;50.614;13.830;2023-03-24T00:53:09;6.43;;;4.53;;
7213;SDS011;3648;50.614;13.830;2023-03-24T00:55:36;7.23;;;4.27;;
7213;SDS011;3648;50.614;13.830;2023-03-24T00:58:03;6.90;;;3.43;;
7213;SDS011;3648;50.614;13.830;2023-03-24T01:00:31;4.77;;;3.83;;
7213;SDS011;3648;50.614;13.830;2023-03-24T01:02:59;7.37;;;6.00;;
7213;SDS011;3648;50.614;13.830;2023-03-24T01:05:27;7.10;;;4.83;;
7213;SDS011;3648;50.614;13.830;2023-03-24T01:07:56;7.43;;;4.83;;
7213;SDS011;3648;50.614;13.830;2023-03-24T01:10:27;6.20;;;3.97;;
7213;SDS011;3648;50.614;13.830;2023-03-24T01:12:55;4.07;;;3.50;;
7213;SDS011;3648;50.614;13.830;2023-03-24T01:15:24;5.40;;;3.30;;
7213;SDS011;3648;50.614;13.830;2023-03-24T01:17:55;4.83;;;3.33;;
7213;SDS011;3648;50.614;13.830;2023-03-24T01:20:22;11.47;;;3.80;;
7213;SDS011;3648;50.614;13.830;2023-03-24T01:22:50;4.87;;;3.87;;
7213;SDS011;3648;50.614;13.830;2023-03-24T01:25:18;4.77;;;3.47;;
7213;SDS011;3648;50.614;13.830;2023-03-24T01:27:47;4.87;;;3.23;;
7213;SDS011;3648;50.614;13.830;2023-03-24T01:30:15;4.50;;;3.60;;
7213;SDS011;3648;50.614;13.830;2023-03-24T01:32:44;4.13;;;3.13;;
7213;SDS011;3648;50.614;13.830;2023-03-24T01:35:12;6.77;;;4.20;;
7213;SDS011;3648;50.614;13.830;2023-03-24T01:37:39;7.07;;;4.43;;
7213;SDS011;3648;50.614;13.830;2023-03-24T01:40:07;7.60;;;4.93;;
7213;SDS011;3648;50.614;13.830;2023-03-24T01:42:37;4.63;;;4.10;;
7213;SDS011;3648;50.614;13.830;2023-03-24T01:48:07;5.43;;;4.37;;
7213;SDS011;3648;50.614;13.830;2023-03-24T01:50:38;5.17;;;4.50;;
7213;SDS011;3648;50.614;13.830;2023-03-24T01:53:07;9.37;;;5.27;;
7213;SDS011;3648;50.614;13.830;2023-03-24T01:55:34;7.43;;;5.67;;
7213;SDS011;3648;50.614;13.830;2023-03-24T01:58:03;7.50;;;5.13;;
7213;SDS011;3648;50.614;13.830;2023-03-24T02:00:31;6.63;;;4.70;;
7213;SDS011;3648;50.614;13.830;2023-03-24T02:03:03;6.43;;;4.10;;
7213;SDS011;3648;50.614;13.830;2023-03-24T02:05:34;10.73;;;4.30;;
7213;SDS011;3648;50.614;13.830;2023-03-24T02:08:06;4.60;;;3.50;;
7213;SDS011;3648;50.614;13.830;2023-03-24T02:10:39;4.90;;;3.73;;
7213;SDS011;3648;50.614;13.830;2023-03-24T02:13:07;5.60;;;3.90;;
7213;SDS011;3648;50.614;13.830;2023-03-24T02:15:36;5.57;;;4.17;;
7213;SDS011;3648;50.614;13.830;2023-03-24T02:18:12;8.23;;;6.27;;
7213;SDS011;3648;50.614;13.830;2023-03-24T02:20:51;8.73;;;7.83;;
7213;SDS011;3648;50.614;13.830;2023-03-24T02:24:05;8.10;;;4.77;;
7213;SDS011;3648;50.614;13.830;2023-03-24T02:26:58;7.20;;;4.83;;
7213;SDS011;3648;50.614;13.830;2023-03-24T02:32:30;12.90;;;6.07;;
7213;SDS011;3648;50.614;13.830;2023-03-24T02:35:16;9.47;;;6.40;;
7213;SDS011;3648;50.614;13.830;2023-03-24T02:38:17;9.83;;;6.63;;
7213;SDS011;3648;50.614;13.830;2023-03-24T02:41:01;10.47;;;5.67;;
7213;SDS011;3648;50.614;13.830;2023-03-24T02:43:35;7.20;;;4.73;;
7213;SDS011;3648;50.614;13.830;2023-03-24T02:46:14;8.00;;;4.90;;
7213;SDS011;3648;50.614;13.830;2023-03-24T02:48:58;5.47;;;4.40;;
7213;SDS011;3648;50.614;13.830;2023-03-24T02:51:35;8.90;;;4.63;;
7213;SDS011;3648;50.614;13.830;2023-03-24T02:54:06;9.13;;;4.60;;
7213;SDS011;3648;50.614;13.830;2023-03-24T02:56:38;4.97;;;4.13;;
7213;SDS011;3648;50.614;13.830;2023-03-24T02:59:13;5.13;;;4.20;;
7213;SDS011;3648;50.614;13.830;2023-03-24T03:01:46;4.63;;;3.63;;
7213;SDS011;3648;50.614;13.830;2023-03-24T03:04:19;4.70;;;3.40;;
7213;SDS011;3648;50.614;13.830;2023-03-24T03:06:51;5.60;;;4.60;;
7213;SDS011;3648;50.614;13.830;2023-03-24T03:09:23;6.83;;;3.80;;
7213;SDS011;3648;50.614;13.830;2023-03-24T03:11:55;4.23;;;3.37;;
7213;SDS011;3648;50.614;13.830;2023-03-24T03:14:26;5.17;;;3.70;;
7213;SDS011;3648;50.614;13.830;2023-03-24T03:16:59;5.07;;;3.70;;
7213;SDS011;3648;50.614;13.830;2023-03-24T03:19:30;5.07;;;3.30;;
7213;SDS011;3648;50.614;13.830;2023-03-24T03:22:01;4.37;;;3.57;;
7213;SDS011;3648;50.614;13.830;2023-03-24T03:24:32;5.03;;;3.63;;
7213;SDS011;3648;50.614;13.830;2023-03-24T03:27:05;4.53;;;3.47;;
7213;SDS011;3648;50.614;13.830;2023-03-24T03:29:39;5.47;;;3.90;;
7213;SDS011;3648;50.614;13.830;2023-03-24T03:32:10;4.83;;;3.30;;
7213;SDS011;3648;50.614;13.830;2023-03-24T03:34:44;4.17;;;3.50;;
7213;SDS011;3648;50.614;13.830;2023-03-24T03:37:19;6.23;;;3.83;;
7213;SDS011;3648;50.614;13.830;2023-03-24T03:39:51;5.47;;;3.77;;
7213;SDS011;3648;50.614;13.830;2023-03-24T03:42:22;3.73;;;3.43;;
7213;SDS011;3648;50.614;13.830;2023-03-24T03:44:50;4.73;;;3.77;;
7213;SDS011;3648;50.614;13.830;2023-03-24T03:47:17;5.93;;;4.70;;
7213;SDS011;3648;50.614;13.830;2023-03-24T03:49:46;6.37;;;4.30;;
7213;SDS011;3648;50.614;13.830;2023-03-24T03:52:14;5.03;;;3.80;;
7213;SDS011;3648;50.614;13.830;2023-03-24T03:54:42;4.83;;;3.97;;
7213;SDS011;3648;50.614;13.830;2023-03-24T03:57:09;4.53;;;3.87;;
7213;SDS011;3648;50.614;13.830;2023-03-24T03:59:40;5.67;;;4.00;;
7213;SDS011;3648;50.614;13.830;2023-03-24T04:02:11;5.27;;;4.50;;
7213;SDS011;3648;50.614;13.830;2023-03-24T04:05:08;7.33;;;5.27;;
7213;SDS011;3648;50.614;13.830;2023-03-24T04:07:50;6.30;;;5.03;;
7213;SDS011;3648;50.614;13.830;2023-03-24T04:10:35;7.40;;;4.77;;
7213;SDS011;3648;50.614;13.830;2023-03-24T04:13:16;6.13;;;4.90;;
7213;SDS011;3648;50.614;13.830;2023-03-24T04:15:53;5.20;;;4.10;;
7213;SDS011;3648;50.614;13.830;2023-03-24T04:18:30;6.77;;;5.03;;
7213;SDS011;3648;50.614;13.830;2023-03-24T04:21:10;7.50;;;4.50;;
7213;SDS011;3648;50.614;13.830;2023-03-24T04:24:01;5.07;;;4.30;;
7213;SDS011;3648;50.614;13.830;2023-03-24T04:26:40;7.17;;;4.50;;
7213;SDS011;3648;50.614;13.830;2023-03-24T04:29:19;7.93;;;6.43;;
7213;SDS011;3648;50.614;13.830;2023-03-24T04:31:56;12.20;;;8.27;;
7213;SDS011;3648;50.614;13.830;2023-03-24T04:34:28;11.30;;;8.33;;
7213;SDS011;3648;50.614;13.830;2023-03-24T04:37:01;17.30;;;11.33;;
7213;SDS011;3648;50.614;13.830;2023-03-24T04:39:33;17.03;;;10.00;;
7213;SDS011;3648;50.614;13.830;2023-03-24T04:42:03;15.63;;;10.57;;
7213;SDS011;3648;50.614;13.830;2023-03-24T04:44:39;13.63;;;9.53;;
7213;SDS011;3648;50.614;13.830;2023-03-24T04:47:08;14.23;;;9.43;;
7213;SDS011;3648;50.614;13.830;2023-03-24T04:49:37;10.53;;;7.30;;
7213;SDS011;3648;50.614;13.830;2023-03-24T04:52:04;11.17;;;7.07;;
7213;SDS011;3648;50.614;13.830;2023-03-24T04:54:32;9.83;;;5.93;;
7213;SDS011;3648;50.614;13.830;2023-03-24T04:57:00;10.27;;;6.67;;
7213;SDS011;3648;50.614;13.830;2023-03-24T04:59:28;11.17;;;8.40;;
7213;SDS011;3648;50.614;13.830;2023-03-24T05:01:58;12.50;;;7.07;;
7213;SDS011;3648;50.614;13.830;2023-03-24T05:04:27;7.70;;;5.60;;
7213;SDS011;3648;50.614;13.830;2023-03-24T05:06:55;6.87;;;5.00;;
7213;SDS011;3648;50.614;13.830;2023-03-24T05:09:23;6.07;;;4.40;;
7213;SDS011;3648;50.614;13.830;2023-03-24T05:11:51;8.00;;;4.33;;
7213;SDS011;3648;50.614;13.830;2023-03-24T05:14:18;7.17;;;4.70;;
7213;SDS011;3648;50.614;13.830;2023-03-24T05:16:45;7.03;;;4.87;;
7213;SDS011;3648;50.614;13.830;2023-03-24T05:19:12;7.90;;;4.97;;
7213;SDS011;3648;50.614;13.830;2023-03-24T05:21:41;7.80;;;5.50;;
7213;SDS011;3648;50.614;13.830;2023-03-24T05:24:08;7.87;;;6.43;;
7213;SDS011;3648;50.614;13.830;2023-03-24T05:26:36;8.80;;;5.30;;
7213;SDS011;3648;50.614;13.830;2023-03-24T05:29:03;6.57;;;4.00;;
7213;SDS011;3648;50.614;13.830;2023-03-24T05:31:30;5.50;;;4.13;;
7213;SDS011;3648;50.614;13.830;2023-03-24T05:33:57;15.70;;;5.10;;
7213;SDS011;3648;50.614;13.830;2023-03-24T05:36:25;4.73;;;4.00;;
7213;SDS011;3648;50.614;13.830;2023-03-24T05:38:54;7.10;;;4.40;;
7213;SDS011;3648;50.614;13.830;2023-03-24T05:41:21;8.67;;;6.10;;
7213;SDS011;3648;50.614;13.830;2023-03-24T05:43:48;16.40;;;5.13;;
7213;SDS011;3648;50.614;13.830;2023-03-24T05:46:15;7.17;;;4.50;;
7213;SDS011;3648;50.614;13.830;2023-03-24T05:48:42;6.13;;;4.53;;
7213;SDS011;3648;50.614;13.830;2023-03-24T05:51:09;5.97;;;5.17;;
7213;SDS011;3648;50.614;13.830;2023-03-24T05:53:36;10.87;;;7.23;;
7213;SDS011;3648;50.614;13.830;2023-03-24T05:56:05;8.60;;;7.53;;
7213;SDS011;3648;50.614;13.830;2023-03-24T05:58:36;7.63;;;6.40;;
7213;SDS011;3648;50.614;13.830;2023-03-24T06:01:05;8.83;;;7.27;;
7213;SDS011;3648;50.614;13.830;2023-03-24T06:03:34;17.00;;;10.40;;
7213;SDS011;3648;50.614;13.830;2023-03-24T06:06:04;15.53;;;10.00;;
7213;SDS011;3648;50.614;13.830;2023-03-24T06:08:32;17.30;;;12.50;;
7213;SDS011;3648;50.614;13.830;2023-03-24T06:10:59;30.27;;;21.37;;
7213;SDS011;3648;50.614;13.830;2023-03-24T06:13:29;36.40;;;25.30;;
7213;SDS011;3648;50.614;13.830;2023-03-24T06:15:56;23.60;;;15.43;;
7213;SDS011;3648;50.614;13.830;2023-03-24T06:18:24;24.37;;;15.47;;
7213;SDS011;3648;50.614;13.830;2023-03-24T06:20:52;26.40;;;17.00;;
7213;SDS011;3648;50.614;13.830;2023-03-24T06:23:21;20.73;;;13.40;;
7213;SDS011;3648;50.614;13.830;2023-03-24T06:25:50;19.30;;;14.03;;
7213;SDS011;3648;50.614;13.830;2023-03-24T06:28:17;17.73;;;11.20;;
7213;SDS011;3648;50.614;13.830;2023-03-24T06:30:46;13.67;;;8.83;;
7213;SDS011;3648;50.614;13.830;2023-03-24T06:33:14;11.53;;;8.07;;
7213;SDS011;3648;50.614;13.830;2023-03-24T06:35:41;11.47;;;7.03;;
7213;SDS011;3648;50.614;13.830;2023-03-24T06:38:09;13.60;;;10.07;;
7213;SDS011;3648;50.614;13.830;2023-03-24T06:40:37;12.03;;;9.80;;
7213;SDS011;3648;50.614;13.830;2023-03-24T06:43:04;10.47;;;8.23;;
7213;SDS011;3648;50.614;13.830;2023-03-24T06:45:31;8.83;;;7.63;;
7213;SDS011;3648;50.614;13.830;2023-03-24T06:48:00;10.37;;;7.13;;
7213;SDS011;3648;50.614;13.830;2023-03-24T06:50:26;6.83;;;5.27;;
7213;SDS011;3648;50.614;13.830;2023-03-24T06:52:57;6.13;;;4.83;;
7213;SDS011;3648;50.614;13.830;2023-03-24T06:55:24;7.47;;;5.43;;
7213;SDS011;3648;50.614;13.830;2023-03-24T06:57:52;6.57;;;5.30;;
7213;SDS011;3648;50.614;13.830;2023-03-24T07:00:20;7.40;;;4.93;;
7213;SDS011;3648;50.614;13.830;2023-03-24T07:02:47;5.97;;;4.70;;
7213;SDS011;3648;50.614;13.830;2023-03-24T07:05:16;6.57;;;4.80;;
7213;SDS011;3648;50.614;13.830;2023-03-24T07:07:43;7.00;;;5.03;;
7213;SDS011;3648;50.614;13.830;2023-03-24T07:10:11;8.33;;;5.80;;
7213;SDS011;3648;50.614;13.830;2023-03-24T07:12:38;7.03;;;4.97;;
7213;SDS011;3648;50.614;13.830;2023-03-24T07:15:05;5.77;;;4.90;;
7213;SDS011;3648;50.614;13.830;2023-03-24T07:17:33;7.83;;;5.23;;
7213;SDS011;3648;50.614;13.830;2023-03-24T07:20:00;7.63;;;5.70;;
7213;SDS011;3648;50.614;13.830;2023-03-24T07:22:33;8.03;;;5.10;;
7213;SDS011;3648;50.614;13.830;2023-03-24T07:25:01;8.17;;;6.97;;
7213;SDS011;3648;50.614;13.830;2023-03-24T07:27:28;6.67;;;5.63;;
7213;SDS011;3648;50.614;13.830;2023-03-24T07:29:56;7.40;;;6.70;;
7213;SDS011;3648;50.614;13.830;2023-03-24T07:32:23;6.10;;;5.10;;
7213;SDS011;3648;50.614;13.830;2023-03-24T07:34:52;6.43;;;4.73;;
7213;SDS011;3648;50.614;13.830;2023-03-24T07:37:19;5.97;;;3.80;;
7213;SDS011;3648;50.614;13.830;2023-03-24T07:39:48;6.87;;;4.00;;
7213;SDS011;3648;50.614;13.830;2023-03-24T07:42:15;8.23;;;5.40;;
7213;SDS011;3648;50.614;13.830;2023-03-24T07:44:42;7.17;;;5.73;;
7213;SDS011;3648;50.614;13.830;2023-03-24T07:47:09;7.43;;;5.10;;
7213;SDS011;3648;50.614;13.830;2023-03-24T07:49:36;8.20;;;5.30;;
7213;SDS011;3648;50.614;13.830;2023-03-24T07:52:03;8.03;;;4.87;;
7213;SDS011;3648;50.614;13.830;2023-03-24T07:54:31;7.57;;;5.23;;
7213;SDS011;3648;50.614;13.830;2023-03-24T07:57:00;7.70;;;5.43;;
7213;SDS011;3648;50.614;13.830;2023-03-24T07:59:27;8.90;;;5.47;;
7213;SDS011;3648;50.614;13.830;2023-03-24T08:01:54;6.83;;;5.07;;
7213;SDS011;3648;50.614;13.830;2023-03-24T08:04:21;7.43;;;4.90;;
7213;SDS011;3648;50.614;13.830;2023-03-24T08:06:48;6.37;;;4.97;;
7213;SDS011;3648;50.614;13.830;2023-03-24T08:09:16;6.00;;;4.10;;
7213;SDS011;3648;50.614;13.830;2023-03-24T08:11:44;6.63;;;3.57;;
7213;SDS011;3648;50.614;13.830;2023-03-24T08:14:12;6.83;;;4.73;;
7213;SDS011;3648;50.614;13.830;2023-03-24T08:16:39;5.17;;;4.07;;
7213;SDS011;3648;50.614;13.830;2023-03-24T08:19:06;6.80;;;3.93;;
7213;SDS011;3648;50.614;13.830;2023-03-24T08:21:33;7.03;;;4.03;;
7213;SDS011;3648;50.614;13.830;2023-03-24T08:24:01;7.03;;;4.97;;
7213;SDS011;3648;50.614;13.830;2023-03-24T08:26:28;9.20;;;5.40;;
7213;SDS011;3648;50.614;13.830;2023-03-24T08:28:55;6.80;;;4.23;;
7213;SDS011;3648;50.614;13.830;2023-03-24T08:31:33;6.70;;;4.60;;
7213;SDS011;3648;50.614;13.830;2023-03-24T08:34:17;10.57;;;6.90;;
7213;SDS011;3648;50.614;13.830;2023-03-24T08:36:44;16.97;;;9.60;;
7213;SDS011;3648;50.614;13.830;2023-03-24T08:39:10;13.00;;;8.70;;
7213;SDS011;3648;50.614;13.830;2023-03-24T08:41:37;13.50;;;9.83;;
7213;SDS011;3648;50.614;13.830;2023-03-24T08:44:04;15.37;;;8.07;;
7213;SDS011;3648;50.614;13.830;2023-03-24T08:46:31;15.17;;;10.00;;
7213;SDS011;3648;50.614;13.830;2023-03-24T08:48:58;13.73;;;8.03;;
7213;SDS011;3648;50.614;13.830;2023-03-24T08:51:27;17.33;;;8.00;;
7213;SDS011;3648;50.614;13.830;2023-03-24T08:53:55;11.43;;;7.10;;
7213;SDS011;3648;50.614;13.830;2023-03-24T08:56:22;7.70;;;5.73;;
7213;SDS011;3648;50.614;13.830;2023-03-24T08:58:49;13.07;;;6.93;;
7213;SDS011;3648;50.614;13.830;2023-03-24T09:01:17;14.13;;;7.90;;
7213;SDS011;3648;50.614;13.830;2023-03-24T09:03:45;12.23;;;6.93;;
7213;SDS011;3648;50.614;13.830;2023-03-24T09:06:12;10.33;;;7.20;;
7213;SDS011;3648;50.614;13.830;2023-03-24T09:08:41;15.63;;;7.17;;
7213;SDS011;3648;50.614;13.830;2023-03-24T09:11:12;7.80;;;5.80;;
7213;SDS011;3648;50.614;13.830;2023-03-24T09:13:40;9.27;;;5.97;;
7213;SDS011;3648;50.614;13.830;2023-03-24T09:16:08;9.73;;;6.33;;
7213;SDS011;3648;50.614;13.830;2023-03-24T09:18:36;8.53;;;4.80;;
7213;SDS011;3648;50.614;13.830;2023-03-24T09:21:03;8.40;;;5.57;;
7213;SDS011;3648;50.614;13.830;2023-03-24T09:23:30;8.23;;;5.33;;
7213;SDS011;3648;50.614;13.830;2023-03-24T09:25:59;7.13;;;5.10;;
7213;SDS011;3648;50.614;13.830;2023-03-24T09:28:27;7.30;;;4.93;;
7213;SDS011;3648;50.614;13.830;2023-03-24T09:30:55;6.00;;;4.60;;
7213;SDS011;3648;50.614;13.830;2023-03-24T09:33:23;6.67;;;4.47;;
7213;SDS011;3648;50.614;13.830;2023-03-24T09:35:54;6.73;;;4.17;;
7213;SDS011;3648;50.614;13.830;2023-03-24T09:38:22;5.90;;;4.50;;
7213;SDS011;3648;50.614;13.830;2023-03-24T09:40:50;8.50;;;5.83;;
7213;SDS011;3648;50.614;13.830;2023-03-24T09:43:24;6.87;;;5.10;;
7213;SDS011;3648;50.614;13.830;2023-03-24T09:45:56;9.23;;;5.20;;
7213;SDS011;3648;50.614;13.830;2023-03-24T09:48:29;8.97;;;5.30;;
7213;SDS011;3648;50.614;13.830;2023-03-24T09:51:01;11.23;;;5.40;;
7213;SDS011;3648;50.614;13.830;2023-03-24T09:53:33;7.33;;;4.90;;
7213;SDS011;3648;50.614;13.830;2023-03-24T09:56:09;7.33;;;4.70;;
7213;SDS011;3648;50.614;13.830;2023-03-24T09:58:39;6.77;;;4.27;;
7213;SDS011;3648;50.614;13.830;2023-03-24T10:01:10;6.37;;;4.40;;
7213;SDS011;3648;50.614;13.830;2023-03-24T10:03:39;5.30;;;4.03;;
7213;SDS011;3648;50.614;13.830;2023-03-24T10:06:07;10.13;;;6.37;;
7213;SDS011;3648;50.614;13.830;2023-03-24T10:08:38;10.17;;;4.80;;
7213;SDS011;3648;50.614;13.830;2023-03-24T10:11:10;7.97;;;4.90;;
7213;SDS011;3648;50.614;13.830;2023-03-24T10:13:51;8.73;;;6.53;;
7213;SDS011;3648;50.614;13.830;2023-03-24T10:16:30;15.53;;;7.80;;
7213;SDS011;3648;50.614;13.830;2023-03-24T10:19:07;8.60;;;5.20;;
7213;SDS011;3648;50.614;13.830;2023-03-24T10:21:48;4.90;;;3.77;;
7213;SDS011;3648;50.614;13.830;2023-03-24T10:24:22;4.93;;;2.90;;
7213;SDS011;3648;50.614;13.830;2023-03-24T10:26:55;2.70;;;2.50;;
7213;SDS011;3648;50.614;13.830;2023-03-24T10:29:29;3.80;;;3.03;;
7213;SDS011;3648;50.614;13.830;2023-03-24T10:31:58;4.43;;;2.57;;
7213;SDS011;3648;50.614;13.830;2023-03-24T10:34:28;3.57;;;2.63;;
7213;SDS011;3648;50.614;13.830;2023-03-24T10:36:58;3.93;;;2.57;;
7213;SDS011;3648;50.614;13.830;2023-03-24T10:39:27;2.13;;;1.67;;
7213;SDS011;3648;50.614;13.830;2023-03-24T10:41:54;2.13;;;1.70;;
7213;SDS011;3648;50.614;13.830;2023-03-24T10:44:23;3.00;;;2.50;;
7213;SDS011;3648;50.614;13.830;2023-03-24T10:46:52;3.27;;;1.37;;
7213;SDS011;3648;50.614;13.830;2023-03-24T10:49:22;1.57;;;1.03;;
7213;SDS011;3648;50.614;13.830;2023-03-24T10:51:49;2.90;;;1.20;;
7213;SDS011;3648;50.614;13.830;2023-03-24T10:54:21;3.20;;;1.27;;
7213;SDS011;3648;50.614;13.830;2023-03-24T10:56:49;1.50;;;1.10;;
7213;SDS011;3648;50.614;13.830;2023-03-24T10:59:27;1.17;;;0.97;;
7213;SDS011;3648;50.614;13.830;2023-03-24T11:01:59;1.40;;;1.30;;
7213;SDS011;3648;50.614;13.830;2023-03-24T11:04:30;2.10;;;1.70;;
7213;SDS011;3648;50.614;13.830;2023-03-24T11:07:00;2.13;;;1.10;;
7213;SDS011;3648;50.614;13.830;2023-03-24T11:09:37;3.20;;;2.17;;
7213;SDS011;3648;50.614;13.830;2023-03-24T11:12:12;3.10;;;1.50;;
7213;SDS011;3648;50.614;13.830;2023-03-24T11:14:47;3.47;;;2.50;;
7213;SDS011;3648;50.614;13.830;2023-03-24T11:17:15;2.60;;;2.40;;
7213;SDS011;3648;50.614;13.830;2023-03-24T11:19:53;3.57;;;2.33;;
7213;SDS011;3648;50.614;13.830;2023-03-24T11:22:22;2.33;;;2.10;;
7213;SDS011;3648;50.614;13.830;2023-03-24T11:24:51;2.50;;;2.00;;
7213;SDS011;3648;50.614;13.830;2023-03-24T11:27:21;3.00;;;2.20;;
7213;SDS011;3648;50.614;13.830;2023-03-24T11:29:48;3.13;;;2.07;;
7213;SDS011;3648;50.614;13.830;2023-03-24T11:32:21;2.10;;;1.63;;
7213;SDS011;3648;50.614;13.830;2023-03-24T11:34:57;2.63;;;2.03;;
7213;SDS011;3648;50.614;13.830;2023-03-24T11:37:29;3.33;;;2.03;;
7213;SDS011;3648;50.614;13.830;2023-03-24T11:40:14;2.53;;;1.50;;
7213;SDS011;3648;50.614;13.830;2023-03-24T11:42:45;3.00;;;1.50;;
7213;SDS011;3648;50.614;13.830;2023-03-24T11:45:22;1.70;;;1.10;;
7213;SDS011;3648;50.614;13.830;2023-03-24T11:47:54;1.43;;;0.90;;
7213;SDS011;3648;50.614;13.830;2023-03-24T11:50:24;3.10;;;1.30;;
7213;SDS011;3648;50.614;13.830;2023-03-24T11:52:56;1.80;;;0.87;;
7213;SDS011;3648;50.614;13.830;2023-03-24T11:55:34;1.80;;;1.50;;
7213;SDS011;3648;50.614;13.830;2023-03-24T11:58:10;4.43;;;2.50;;
7213;SDS011;3648;50.614;13.830;2023-03-24T12:00:45;3.50;;;2.40;;
7213;SDS011;3648;50.614;13.830;2023-03-24T12:06:26;3.27;;;1.80;;
7213;SDS011;3648;50.614;13.830;2023-03-24T12:09:04;3.57;;;1.70;;
7213;SDS011;3648;50.614;13.830;2023-03-24T12:11:44;3.87;;;2.10;;
7213;SDS011;3648;50.614;13.830;2023-03-24T12:14:20;3.97;;;2.60;;
7213;SDS011;3648;50.614;13.830;2023-03-24T12:16:55;2.57;;;2.00;;
7213;SDS011;3648;50.614;13.830;2023-03-24T12:19:31;3.20;;;1.80;;
7213;SDS011;3648;50.614;13.830;2023-03-24T12:22:15;4.20;;;2.10;;
7213;SDS011;3648;50.614;13.830;2023-03-24T12:24:58;3.50;;;2.60;;
7213;SDS011;3648;50.614;13.830;2023-03-24T12:27:42;5.97;;;1.47;;
7213;SDS011;3648;50.614;13.830;2023-03-24T12:30:19;1.10;;;0.97;;
7213;SDS011;3648;50.614;13.830;2023-03-24T12:32:57;3.10;;;1.03;;
7213;SDS011;3648;50.614;13.830;2023-03-24T12:35:44;1.57;;;0.90;;
7213;SDS011;3648;50.614;13.830;2023-03-24T12:38:27;1.93;;;1.00;;
7213;SDS011;3648;50.614;13.830;2023-03-24T12:41:06;2.67;;;1.10;;
7213;SDS011;3648;50.614;13.830;2023-03-24T12:43:46;1.70;;;1.20;;
7213;SDS011;3648;50.614;13.830;2023-03-24T12:46:30;2.77;;;1.73;;
7213;SDS011;3648;50.614;13.830;2023-03-24T12:52:03;2.33;;;1.90;;
7213;SDS011;3648;50.614;13.830;2023-03-24T12:54:42;2.13;;;1.67;;
7213;SDS011;3648;50.614;13.830;2023-03-24T12:57:16;2.73;;;1.70;;
7213;SDS011;3648;50.614;13.830;2023-03-24T12:59:49;1.93;;;1.33;;
7213;SDS011;3648;50.614;13.830;2023-03-24T13:02:24;1.80;;;1.70;;
7213;SDS011;3648;50.614;13.830;2023-03-24T13:04:58;4.07;;;2.40;;
7213;SDS011;3648;50.614;13.830;2023-03-24T13:07:29;2.80;;;2.50;;
7213;SDS011;3648;50.614;13.830;2023-03-24T13:10:04;3.50;;;1.70;;
7213;SDS011;3648;50.614;13.830;2023-03-24T13:12:39;1.30;;;1.20;;
7213;SDS011;3648;50.614;13.830;2023-03-24T13:15:12;2.37;;;1.47;;
7213;SDS011;3648;50.614;13.830;2023-03-24T13:17:44;1.03;;;0.93;;
7213;SDS011;3648;50.614;13.830;2023-03-24T13:20:16;1.83;;;1.27;;
7213;SDS011;3648;50.614;13.830;2023-03-24T13:22:50;2.73;;;1.40;;
7213;SDS011;3648;50.614;13.830;2023-03-24T13:25:21;3.10;;;2.30;;
7213;SDS011;3648;50.614;13.830;2023-03-24T13:27:58;2.43;;;2.00;;
7213;SDS011;3648;50.614;13.830;2023-03-24T13:30:32;3.93;;;2.50;;
7213;SDS011;3648;50.614;13.830;2023-03-24T13:33:03;4.70;;;2.57;;
7213;SDS011;3648;50.614;13.830;2023-03-24T13:38:32;6.43;;;2.73;;
7213;SDS011;3648;50.614;13.830;2023-03-24T13:41:05;2.87;;;2.13;;
7213;SDS011;3648;50.614;13.830;2023-03-24T13:43:36;4.23;;;2.43;;
7213;SDS011;3648;50.614;13.830;2023-03-24T13:46:14;3.57;;;2.00;;
7213;SDS011;3648;50.614;13.830;2023-03-24T13:48:41;5.43;;;3.67;;
7213;SDS011;3648;50.614;13.830;2023-03-24T13:51:14;6.17;;;4.33;;
7213;SDS011;3648;50.614;13.830;2023-03-24T13:53:44;10.70;;;6.20;;
7213;SDS011;3648;50.614;13.830;2023-03-24T13:56:23;13.47;;;7.37;;
7213;SDS011;3648;50.614;13.830;2023-03-24T13:59:18;8.33;;;5.07;;
7213;SDS011;3648;50.614;13.830;2023-03-24T14:05:07;3.13;;;2.40;;
7213;SDS011;3648;50.614;13.830;2023-03-24T14:07:42;3.37;;;2.67;;
7213;SDS011;3648;50.614;13.830;2023-03-24T14:10:26;1.43;;;1.33;;
7213;SDS011;3648;50.614;13.830;2023-03-24T14:13:03;2.43;;;1.80;;
7213;SDS011;3648;50.614;13.830;2023-03-24T14:15:43;4.60;;;3.40;;
7213;SDS011;3648;50.614;13.830;2023-03-24T14:18:14;5.50;;;4.17;;
7213;SDS011;3648;50.614;13.830;2023-03-24T14:21:03;3.90;;;3.03;;
7213;SDS011;3648;50.614;13.830;2023-03-24T14:23:33;5.30;;;2.90;;
7213;SDS011;3648;50.614;13.830;2023-03-24T14:26:03;5.50;;;4.00;;
7213;SDS011;3648;50.614;13.830;2023-03-24T14:28:35;7.60;;;4.50;;
7213;SDS011;3648;50.614;13.830;2023-03-24T14:34:01;3.60;;;3.00;;
7213;SDS011;3648;50.614;13.830;2023-03-24T14:36:38;12.70;;;8.90;;
7213;SDS011;3648;50.614;13.830;2023-03-24T14:39:08;5.03;;;3.90;;
7213;SDS011;3648;50.614;13.830;2023-03-24T14:41:47;4.13;;;3.03;;
7213;SDS011;3648;50.614;13.830;2023-03-24T14:47:19;3.90;;;1.90;;
7213;SDS011;3648;50.614;13.830;2023-03-24T14:49:47;0.90;;;0.70;;
7213;SDS011;3648;50.614;13.830;2023-03-24T14:52:17;0.90;;;0.60;;
7213;SDS011;3648;50.614;13.830;2023-03-24T14:54:49;2.40;;;0.70;;
7213;SDS011;3648;50.614;13.830;2023-03-24T14:57:19;0.57;;;0.40;;
7213;SDS011;3648;50.614;13.830;2023-03-24T14:59:49;0.70;;;0.40;;
7213;SDS011;3648;50.614;13.830;2023-03-24T15:02:28;0.90;;;0.80;;
7213;SDS011;3648;50.614;13.830;2023-03-24T15:07:59;0.73;;;0.70;;
7213;SDS011;3648;50.614;13.830;2023-03-24T15:10:30;0.73;;;0.60;;
7213;SDS011;3648;50.614;13.830;2023-03-24T15:13:02;1.23;;;0.90;;
7213;SDS011;3648;50.614;13.830;2023-03-24T15:15:31;0.60;;;0.60;;
7213;SDS011;3648;50.614;13.830;2023-03-24T15:17:58;0.93;;;0.83;;
7213;SDS011;3648;50.614;13.830;2023-03-24T15:20:26;0.70;;;0.70;;
7213;SDS011;3648;50.614;13.830;2023-03-24T15:23:03;1.33;;;1.20;;
7213;SDS011;3648;50.614;13.830;2023-03-24T15:25:31;0.77;;;0.77;;
7213;SDS011;3648;50.614;13.830;2023-03-24T15:27:58;1.50;;;1.20;;
7213;SDS011;3648;50.614;13.830;2023-03-24T15:30:25;2.20;;;1.60;;
7213;SDS011;3648;50.614;13.830;2023-03-24T15:32:55;1.33;;;1.13;;
7213;SDS011;3648;50.614;13.830;2023-03-24T15:35:23;1.83;;;1.20;;
7213;SDS011;3648;50.614;13.830;2023-03-24T15:37:51;1.30;;;1.00;;
7213;SDS011;3648;50.614;13.830;2023-03-24T15:40:32;1.33;;;0.70;;
7213;SDS011;3648;50.614;13.830;2023-03-24T15:43:02;1.00;;;0.90;;
7213;SDS011;3648;50.614;13.830;2023-03-24T15:45:31;0.60;;;0.60;;
7213;SDS011;3648;50.614;13.830;2023-03-24T15:48:03;0.83;;;0.70;;
7213;SDS011;3648;50.614;13.830;2023-03-24T15:50:33;0.80;;;0.80;;